sensor_id;sensor_type;location;lat;lon;timestamp;pressure;altitude;pressure_sealevel;temperature;humidity
71716;BME280;59568;52.128;5.434;2023-07-24T00:00:32;100548.06;;;18.01;93.97
71716;BME280;59568;52.128;5.434;2023-07-24T00:03:02;100540.50;;;17.99;93.77
71716;BME280;59568;52.128;5.434;2023-07-24T00:05:29;100545.69;;;17.95;93.93
71716;BME280;59568;52.128;5.434;2023-07-24T00:07:55;100549.81;;;17.93;93.37
71716;BME280;59568;52.128;5.434;2023-07-24T00:10:22;100553.88;;;17.90;94.11
71716;BME280;59568;52.128;5.434;2023-07-24T00:12:48;100547.81;;;17.90;93.34
71716;BME280;59568;52.128;5.434;2023-07-24T00:15:15;100552.34;;;17.89;93.92
71716;BME280;59568;52.128;5.434;2023-07-24T00:17:42;100535.66;;;17.85;94.11
71716;BME280;59568;52.128;5.434;2023-07-24T00:20:09;100535.31;;;17.87;94.47
71716;BME280;59568;52.128;5.434;2023-07-24T00:22:35;100543.56;;;17.85;94.21
71716;BME280;59568;52.128;5.434;2023-07-24T00:25:02;100532.13;;;17.81;94.56
71716;BME280;59568;52.128;5.434;2023-07-24T00:27:29;100534.69;;;17.77;93.83
71716;BME280;59568;52.128;5.434;2023-07-24T00:29:55;100534.59;;;17.74;93.85
71716;BME280;59568;52.128;5.434;2023-07-24T00:32:22;100532.22;;;17.69;93.68
71716;BME280;59568;52.128;5.434;2023-07-24T00:34:48;100534.00;;;17.65;94.08
71716;BME280;59568;52.128;5.434;2023-07-24T00:37:15;100529.72;;;17.60;94.02
71716;BME280;59568;52.128;5.434;2023-07-24T00:39:42;100526.66;;;17.58;93.65
71716;BME280;59568;52.128;5.434;2023-07-24T00:42:08;100526.97;;;17.56;93.63
71716;BME280;59568;52.128;5.434;2023-07-24T00:44:35;100522.38;;;17.53;93.75
71716;BME280;59568;52.128;5.434;2023-07-24T00:47:05;100517.44;;;17.52;94.07
71716;BME280;59568;52.128;5.434;2023-07-24T00:49:32;100515.13;;;17.50;94.56
71716;BME280;59568;52.128;5.434;2023-07-24T00:51:58;100508.31;;;17.49;94.54
71716;BME280;59568;52.128;5.434;2023-07-24T00:54:27;100499.22;;;17.47;95.03
71716;BME280;59568;52.128;5.434;2023-07-24T00:56:57;100495.44;;;17.48;95.23
71716;BME280;59568;52.128;5.434;2023-07-24T00:59:23;100494.69;;;17.47;95.17
71716;BME280;59568;52.128;5.434;2023-07-24T01:01:50;100487.84;;;17.46;94.55
71716;BME280;59568;52.128;5.434;2023-07-24T01:04:18;100487.09;;;17.46;95.23
71716;BME280;59568;52.128;5.434;2023-07-24T01:06:45;100476.88;;;17.44;94.80
71716;BME280;59568;52.128;5.434;2023-07-24T01:09:12;100487.44;;;17.44;94.76
71716;BME280;59568;52.128;5.434;2023-07-24T01:14:24;100495.34;;;17.44;94.43
71716;BME280;59568;52.128;5.434;2023-07-24T01:16:54;100478.00;;;17.43;94.75
71716;BME280;59568;52.128;5.434;2023-07-24T01:28:13;100480.63;;;17.43;94.66
71716;BME280;59568;52.128;5.434;2023-07-24T01:30:40;100483.59;;;17.42;95.20
71716;BME280;59568;52.128;5.434;2023-07-24T01:33:07;100489.66;;;17.42;95.35
71716;BME280;59568;52.128;5.434;2023-07-24T01:35:33;100475.69;;;17.42;95.28
71716;BME280;59568;52.128;5.434;2023-07-24T01:38:01;100473.38;;;17.40;95.16
71716;BME280;59568;52.128;5.434;2023-07-24T01:40:29;100473.75;;;17.39;95.60
71716;BME280;59568;52.128;5.434;2023-07-24T01:42:56;100475.59;;;17.38;94.84
71716;BME280;59568;52.128;5.434;2023-07-24T01:45:25;100472.63;;;17.40;95.50
71716;BME280;59568;52.128;5.434;2023-07-24T01:47:52;100475.59;;;17.38;95.87
71716;BME280;59568;52.128;5.434;2023-07-24T01:50:19;100463.94;;;17.39;95.77
71716;BME280;59568;52.128;5.434;2023-07-24T01:52:45;100457.78;;;17.35;96.21
71716;BME280;59568;52.128;5.434;2023-07-24T01:55:12;100452.09;;;17.33;95.80
71716;BME280;59568;52.128;5.434;2023-07-24T01:57:38;100441.09;;;17.31;95.36
71716;BME280;59568;52.128;5.434;2023-07-24T02:00:05;100445.94;;;17.29;95.31
71716;BME280;59568;52.128;5.434;2023-07-24T02:02:32;100449.69;;;17.28;94.76
71716;BME280;59568;52.128;5.434;2023-07-24T02:04:59;100442.88;;;17.27;94.43
71716;BME280;59568;52.128;5.434;2023-07-24T02:07:26;100441.00;;;17.27;94.90
71716;BME280;59568;52.128;5.434;2023-07-24T02:09:52;100439.13;;;17.28;94.09
71716;BME280;59568;52.128;5.434;2023-07-24T02:12:19;100432.31;;;17.27;94.00
71716;BME280;59568;52.128;5.434;2023-07-24T02:14:46;100440.66;;;17.29;94.68
71716;BME280;59568;52.128;5.434;2023-07-24T02:17:16;100432.31;;;17.27;95.14
71716;BME280;59568;52.128;5.434;2023-07-24T02:19:43;100441.34;;;17.26;94.41
71716;BME280;59568;52.128;5.434;2023-07-24T02:22:10;100436.06;;;17.26;94.93
71716;BME280;59568;52.128;5.434;2023-07-24T02:24:36;100427.28;;;17.22;94.90
71716;BME280;59568;52.128;5.434;2023-07-24T02:27:05;100429.91;;;17.22;95.60
71716;BME280;59568;52.128;5.434;2023-07-24T02:29:32;100424.22;;;17.20;95.35
71716;BME280;59568;52.128;5.434;2023-07-24T02:31:59;100426.84;;;17.20;95.67
71716;BME280;59568;52.128;5.434;2023-07-24T02:34:25;100420.06;;;17.19;95.30
71716;BME280;59568;52.128;5.434;2023-07-24T02:36:54;100423.47;;;17.19;95.59
71716;BME280;59568;52.128;5.434;2023-07-24T02:39:21;100420.81;;;17.19;95.65
71716;BME280;59568;52.128;5.434;2023-07-24T02:41:48;100416.28;;;17.20;96.06
71716;BME280;59568;52.128;5.434;2023-07-24T02:44:15;100415.53;;;17.19;95.70
71716;BME280;59568;52.128;5.434;2023-07-24T02:46:41;100407.19;;;17.17;96.17
71716;BME280;59568;52.128;5.434;2023-07-24T02:49:08;100411.34;;;17.18;96.07
71716;BME280;59568;52.128;5.434;2023-07-24T02:51:35;100416.19;;;17.16;97.11
71716;BME280;59568;52.128;5.434;2023-07-24T02:54:02;100410.16;;;17.15;97.36
71716;BME280;59568;52.128;5.434;2023-07-24T02:56:28;100410.50;;;17.14;96.75
71716;BME280;59568;52.128;5.434;2023-07-24T02:58:55;100410.16;;;17.15;97.50
71716;BME280;59568;52.128;5.434;2023-07-24T03:01:22;100398.84;;;17.15;98.47
71716;BME280;59568;52.128;5.434;2023-07-24T03:03:49;100401.16;;;17.16;99.01
71716;BME280;59568;52.128;5.434;2023-07-24T03:06:15;100402.66;;;17.17;99.31
71716;BME280;59568;52.128;5.434;2023-07-24T03:08:42;100405.31;;;17.17;98.85
71716;BME280;59568;52.128;5.434;2023-07-24T03:11:09;100405.72;;;17.20;98.67
71716;BME280;59568;52.128;5.434;2023-07-24T03:13:35;100397.06;;;17.19;98.99
71716;BME280;59568;52.128;5.434;2023-07-24T03:16:02;100391.00;;;17.19;98.97
71716;BME280;59568;52.128;5.434;2023-07-24T03:18:29;100398.16;;;17.18;98.72
71716;BME280;59568;52.128;5.434;2023-07-24T03:20:57;100403.44;;;17.18;98.78
71716;BME280;59568;52.128;5.434;2023-07-24T03:23:24;100393.66;;;17.19;98.04
71716;BME280;59568;52.128;5.434;2023-07-24T03:25:51;100389.47;;;17.17;98.09
71716;BME280;59568;52.128;5.434;2023-07-24T03:28:17;100381.88;;;17.16;98.69
71716;BME280;59568;52.128;5.434;2023-07-24T03:30:44;100378.47;;;17.15;97.94
71716;BME280;59568;52.128;5.434;2023-07-24T03:33:13;100387.94;;;17.16;97.81
71716;BME280;59568;52.128;5.434;2023-07-24T03:35:40;100391.69;;;17.15;98.08
71716;BME280;59568;52.128;5.434;2023-07-24T03:38:06;100390.50;;;17.13;97.20
71716;BME280;59568;52.128;5.434;2023-07-24T03:40:33;100388.19;;;17.11;97.30
71716;BME280;59568;52.128;5.434;2023-07-24T03:43:00;100384.03;;;17.10;97.75
71716;BME280;59568;52.128;5.434;2023-07-24T03:45:28;100383.59;;;17.08;98.08
71716;BME280;59568;52.128;5.434;2023-07-24T03:47:55;100397.91;;;17.07;98.30
71716;BME280;59568;52.128;5.434;2023-07-24T03:50:22;100387.34;;;17.07;98.84
71716;BME280;59568;52.128;5.434;2023-07-24T03:52:48;100376.34;;;17.05;98.40
71716;BME280;59568;52.128;5.434;2023-07-24T03:55:15;100375.94;;;17.03;98.03
71716;BME280;59568;52.128;5.434;2023-07-24T03:57:42;100381.19;;;17.03;97.14
71716;BME280;59568;52.128;5.434;2023-07-24T04:00:09;100385.72;;;17.03;97.80
71716;BME280;59568;52.128;5.434;2023-07-24T04:02:36;100385.63;;;16.99;98.04
71716;BME280;59568;52.128;5.434;2023-07-24T04:05:03;100383.75;;;17.00;98.70
71716;BME280;59568;52.128;5.434;2023-07-24T04:07:29;100375.06;;;16.99;99.15
71716;BME280;59568;52.128;5.434;2023-07-24T04:09:56;100381.44;;;16.98;98.78
71716;BME280;59568;52.128;5.434;2023-07-24T04:12:22;100384.09;;;16.98;98.82
71716;BME280;59568;52.128;5.434;2023-07-24T04:14:49;100376.53;;;16.96;98.63
71716;BME280;59568;52.128;5.434;2023-07-24T04:17:16;100375.72;;;16.96;98.92
71716;BME280;59568;52.128;5.434;2023-07-24T04:19:43;100381.00;;;16.96;99.39
71716;BME280;59568;52.128;5.434;2023-07-24T04:22:10;100373.47;;;16.94;98.99
71716;BME280;59568;52.128;5.434;2023-07-24T04:24:36;100378.38;;;16.96;99.35
71716;BME280;59568;52.128;5.434;2023-07-24T04:27:03;100379.50;;;16.95;98.71
71716;BME280;59568;52.128;5.434;2023-07-24T04:29:30;100375.31;;;16.94;99.07
71716;BME280;59568;52.128;5.434;2023-07-24T04:31:56;100377.94;;;16.94;98.76
71716;BME280;59568;52.128;5.434;2023-07-24T04:34:23;100388.50;;;16.94;99.06
71716;BME280;59568;52.128;5.434;2023-07-24T04:36:49;100388.94;;;16.96;99.26
71716;BME280;59568;52.128;5.434;2023-07-24T04:39:16;100396.53;;;16.97;98.57
71716;BME280;59568;52.128;5.434;2023-07-24T04:41:46;100399.16;;;16.97;98.78
71716;BME280;59568;52.128;5.434;2023-07-24T04:44:12;100395.75;;;16.97;99.88
71716;BME280;59568;52.128;5.434;2023-07-24T04:46:39;100398.06;;;16.99;99.34
71716;BME280;59568;52.128;5.434;2023-07-24T04:49:06;100389.34;;;16.98;98.93
71716;BME280;59568;52.128;5.434;2023-07-24T04:51:32;100395.44;;;16.99;98.14
71716;BME280;59568;52.128;5.434;2023-07-24T04:54:02;100398.41;;;16.97;98.73
71716;BME280;59568;52.128;5.434;2023-07-24T04:56:28;100383.22;;;16.94;99.06
71716;BME280;59568;52.128;5.434;2023-07-24T04:58:55;100383.22;;;16.94;97.86
71716;BME280;59568;52.128;5.434;2023-07-24T05:01:22;100383.59;;;16.92;98.33
71716;BME280;59568;52.128;5.434;2023-07-24T05:03:48;100380.16;;;16.92;97.99
71716;BME280;59568;52.128;5.434;2023-07-24T05:06:15;100394.47;;;16.91;97.59
71716;BME280;59568;52.128;5.434;2023-07-24T05:08:41;100389.19;;;16.91;98.14
71716;BME280;59568;52.128;5.434;2023-07-24T05:11:08;100399.75;;;16.91;98.25
71716;BME280;59568;52.128;5.434;2023-07-24T05:13:35;100383.91;;;16.91;98.47
71716;BME280;59568;52.128;5.434;2023-07-24T05:16:01;100394.03;;;16.89;98.87
71716;BME280;59568;52.128;5.434;2023-07-24T05:18:28;100382.38;;;16.90;99.51
71716;BME280;59568;52.128;5.434;2023-07-24T05:20:54;100388.94;;;16.96;99.47
71716;BME280;59568;52.128;5.434;2023-07-24T05:23:21;100387.94;;;17.01;99.02
71716;BME280;59568;52.128;5.434;2023-07-24T05:25:56;100395.91;;;17.04;98.63
71716;BME280;59568;52.128;5.434;2023-07-24T05:28:23;100394.16;;;17.08;98.56
71716;BME280;59568;52.128;5.434;2023-07-24T05:30:49;100390.41;;;17.09;99.36
71716;BME280;59568;52.128;5.434;2023-07-24T05:33:16;100395.44;;;17.14;98.89
71716;BME280;59568;52.128;5.434;2023-07-24T05:35:46;100403.44;;;17.18;98.61
71716;BME280;59568;52.128;5.434;2023-07-24T05:39:16;100397.81;;;17.20;98.22
71716;BME280;59568;52.128;5.434;2023-07-24T05:41:47;100393.66;;;17.19;98.49
71716;BME280;59568;52.128;5.434;2023-07-24T05:44:14;100386.16;;;17.21;98.06
71716;BME280;59568;52.128;5.434;2023-07-24T05:46:42;100396.88;;;17.28;97.67
71716;BME280;59568;52.128;5.434;2023-07-24T05:49:10;100390.94;;;17.31;97.56
71716;BME280;59568;52.128;5.434;2023-07-24T05:51:39;100390.94;;;17.31;97.48
71716;BME280;59568;52.128;5.434;2023-07-24T05:54:11;100389.47;;;17.33;97.36
71716;BME280;59568;52.128;5.434;2023-07-24T05:56:38;100396.72;;;17.36;97.81
71716;BME280;59568;52.128;5.434;2023-07-24T05:59:06;100405.97;;;17.46;97.43
71716;BME280;59568;52.128;5.434;2023-07-24T06:01:33;100408.03;;;17.53;96.63
71716;BME280;59568;52.128;5.434;2023-07-24T06:04:01;100403.69;;;17.61;96.53
71716;BME280;59568;52.128;5.434;2023-07-24T06:06:41;100406.81;;;17.66;96.04
71716;BME280;59568;52.128;5.434;2023-07-24T06:09:09;100403.22;;;17.74;95.85
71716;BME280;59568;52.128;5.434;2023-07-24T06:11:36;100406.78;;;17.82;96.02
71716;BME280;59568;52.128;5.434;2023-07-24T06:14:02;100405.94;;;17.94;96.38
71716;BME280;59568;52.128;5.434;2023-07-24T06:16:30;100399.28;;;18.20;96.58
71716;BME280;59568;52.128;5.434;2023-07-24T06:18:57;100400.81;;;18.40;95.46
71716;BME280;59568;52.128;5.434;2023-07-24T06:21:24;100396.63;;;18.59;94.17
71716;BME280;59568;52.128;5.434;2023-07-24T06:23:50;100409.56;;;18.83;93.88
71716;BME280;59568;52.128;5.434;2023-07-24T06:26:19;100404.66;;;18.82;92.74
71716;BME280;59568;52.128;5.434;2023-07-24T06:28:46;100399.59;;;18.76;91.88
71716;BME280;59568;52.128;5.434;2023-07-24T06:31:19;100403.38;;;18.75;91.44
71716;BME280;59568;52.128;5.434;2023-07-24T06:33:49;100406.03;;;18.75;91.23
71716;BME280;59568;52.128;5.434;2023-07-24T06:36:19;100410.50;;;18.71;90.62
71716;BME280;59568;52.128;5.434;2023-07-24T06:39:06;100407.00;;;18.67;91.16
71716;BME280;59568;52.128;5.434;2023-07-24T06:41:40;100405.88;;;18.68;90.35
71716;BME280;59568;52.128;5.434;2023-07-24T06:44:41;100413.81;;;18.88;90.63
71716;BME280;59568;52.128;5.434;2023-07-24T06:47:08;100411.66;;;19.16;90.20
71716;BME280;59568;52.128;5.434;2023-07-24T06:49:52;100408.53;;;19.34;88.88
71716;BME280;59568;52.128;5.434;2023-07-24T06:52:45;100415.69;;;19.33;88.41
71716;BME280;59568;52.128;5.434;2023-07-24T06:55:28;100411.22;;;19.38;87.83
71716;BME280;59568;52.128;5.434;2023-07-24T06:57:58;100412.47;;;19.44;87.80
71716;BME280;59568;52.128;5.434;2023-07-24T07:00:32;100399.91;;;19.41;86.16
71716;BME280;59568;52.128;5.434;2023-07-24T07:03:31;100397.41;;;19.51;87.03
71716;BME280;59568;52.128;5.434;2023-07-24T07:06:18;100409.75;;;19.67;85.94
71716;BME280;59568;52.128;5.434;2023-07-24T07:09:06;100404.00;;;19.61;85.79
71716;BME280;59568;52.128;5.434;2023-07-24T07:12:01;100410.31;;;19.53;85.05
71716;BME280;59568;52.128;5.434;2023-07-24T07:14:30;100408.75;;;19.48;84.83
71716;BME280;59568;52.128;5.434;2023-07-24T07:17:06;100406.03;;;19.45;84.69
71716;BME280;59568;52.128;5.434;2023-07-24T07:19:52;100415.75;;;19.37;85.01
71716;BME280;59568;52.128;5.434;2023-07-24T07:22:39;100419.16;;;19.38;85.25
71716;BME280;59568;52.128;5.434;2023-07-24T07:25:11;100419.63;;;19.43;85.01
71716;BME280;59568;52.128;5.434;2023-07-24T07:27:39;100420.09;;;19.49;85.06
71716;BME280;59568;52.128;5.434;2023-07-24T07:30:27;100421.63;;;19.73;85.76
71716;BME280;59568;52.128;5.434;2023-07-24T07:32:54;100414.19;;;20.12;84.07
71716;BME280;59568;52.128;5.434;2023-07-24T07:35:37;100419.00;;;20.67;83.37
71716;BME280;59568;52.128;5.434;2023-07-24T07:38:09;100415.03;;;20.88;81.73
71716;BME280;59568;52.128;5.434;2023-07-24T07:40:37;100411.00;;;20.64;80.48
71716;BME280;59568;52.128;5.434;2023-07-24T07:43:08;100407.31;;;20.42;81.61
71716;BME280;59568;52.128;5.434;2023-07-24T07:45:35;100403.94;;;20.45;81.95
71716;BME280;59568;52.128;5.434;2023-07-24T07:48:02;100401.47;;;20.59;81.48
71716;BME280;59568;52.128;5.434;2023-07-24T07:50:29;100395.06;;;20.64;80.54
71716;BME280;59568;52.128;5.434;2023-07-24T07:52:56;100389.09;;;20.74;81.59
71716;BME280;59568;52.128;5.434;2023-07-24T07:55:22;100400.19;;;20.83;80.74
71716;BME280;59568;52.128;5.434;2023-07-24T07:57:49;100402.88;;;20.87;80.74
71716;BME280;59568;52.128;5.434;2023-07-24T08:00:16;100403.63;;;20.87;80.81
71716;BME280;59568;52.128;5.434;2023-07-24T08:02:42;100399.03;;;20.81;80.12
71716;BME280;59568;52.128;5.434;2023-07-24T08:05:10;100392.09;;;20.72;80.31
71716;BME280;59568;52.128;5.434;2023-07-24T08:07:48;100384.03;;;20.62;78.35
71716;BME280;59568;52.128;5.434;2023-07-24T08:10:15;100382.72;;;20.45;79.70
71716;BME280;59568;52.128;5.434;2023-07-24T08:12:43;100382.53;;;20.27;79.94
71716;BME280;59568;52.128;5.434;2023-07-24T08:15:10;100380.91;;;20.19;80.91
71716;BME280;59568;52.128;5.434;2023-07-24T08:17:38;100389.31;;;20.24;80.59
71716;BME280;59568;52.128;5.434;2023-07-24T08:20:11;100395.66;;;20.50;81.17
71716;BME280;59568;52.128;5.434;2023-07-24T08:22:39;100397.06;;;20.74;80.49
71716;BME280;59568;52.128;5.434;2023-07-24T08:25:06;100388.34;;;20.73;79.90
71716;BME280;59568;52.128;5.434;2023-07-24T08:27:33;100386.00;;;20.68;79.33
71716;BME280;59568;52.128;5.434;2023-07-24T08:30:11;100394.16;;;20.90;79.09
71716;BME280;59568;52.128;5.434;2023-07-24T08:32:39;100392.53;;;21.19;78.65
71716;BME280;59568;52.128;5.434;2023-07-24T08:35:06;100398.66;;;21.30;78.10
71716;BME280;59568;52.128;5.434;2023-07-24T08:37:33;100411.13;;;21.23;76.90
71716;BME280;59568;52.128;5.434;2023-07-24T08:39:59;100400.50;;;21.23;77.88
71716;BME280;59568;52.128;5.434;2023-07-24T08:42:27;100403.66;;;21.35;76.88
71716;BME280;59568;52.128;5.434;2023-07-24T08:44:55;100403.22;;;21.30;76.64
71716;BME280;59568;52.128;5.434;2023-07-24T08:47:24;100395.50;;;21.14;76.35
71716;BME280;59568;52.128;5.434;2023-07-24T08:49:55;100395.09;;;21.08;77.40
71716;BME280;59568;52.128;5.434;2023-07-24T08:56:14;100402.09;;;21.31;77.03
71716;BME280;59568;52.128;5.434;2023-07-24T08:58:41;100395.78;;;21.50;77.49
71716;BME280;59568;52.128;5.434;2023-07-24T09:01:08;100402.41;;;21.74;76.39
71716;BME280;59568;52.128;5.434;2023-07-24T09:03:35;100396.56;;;22.27;75.83
71716;BME280;59568;52.128;5.434;2023-07-24T09:06:05;100397.72;;;22.37;73.39
71716;BME280;59568;52.128;5.434;2023-07-24T09:08:43;100385.66;;;22.90;73.18
71716;BME280;59568;52.128;5.434;2023-07-24T09:11:11;100390.22;;;23.36;72.53
71716;BME280;59568;52.128;5.434;2023-07-24T09:13:45;100376.84;;;23.65;69.04
71716;BME280;59568;52.128;5.434;2023-07-24T09:16:22;100383.28;;;23.78;70.90
71716;BME280;59568;52.128;5.434;2023-07-24T09:18:53;100367.63;;;23.91;69.23
71716;BME280;59568;52.128;5.434;2023-07-24T09:21:40;100374.88;;;23.76;69.85
71716;BME280;59568;52.128;5.434;2023-07-24T09:24:11;100367.66;;;23.66;70.39
71716;BME280;59568;52.128;5.434;2023-07-24T09:26:51;100372.63;;;23.71;69.82
71716;BME280;59568;52.128;5.434;2023-07-24T09:29:30;100368.13;;;23.43;70.03
71716;BME280;59568;52.128;5.434;2023-07-24T09:32:25;100361.69;;;23.08;69.00
71716;BME280;59568;52.128;5.434;2023-07-24T09:34:52;100354.81;;;22.71;71.25
71716;BME280;59568;52.128;5.434;2023-07-24T09:37:32;100359.38;;;22.52;71.06
71716;BME280;59568;52.128;5.434;2023-07-24T09:40:07;100348.28;;;22.29;73.07
71716;BME280;59568;52.128;5.434;2023-07-24T09:42:38;100337.97;;;22.20;73.41
71716;BME280;59568;52.128;5.434;2023-07-24T09:45:26;100336.41;;;22.05;73.21
71716;BME280;59568;52.128;5.434;2023-07-24T09:47:54;100343.59;;;21.93;74.11
71716;BME280;59568;52.128;5.434;2023-07-24T09:50:29;100345.09;;;21.87;73.43
71716;BME280;59568;52.128;5.434;2023-07-24T09:53:07;100350.03;;;21.85;74.19
71716;BME280;59568;52.128;5.434;2023-07-24T09:55:49;100356.56;;;22.06;74.63
71716;BME280;59568;52.128;5.434;2023-07-24T09:58:20;100370.25;;;22.15;73.44
71716;BME280;59568;52.128;5.434;2023-07-24T10:00:48;100371.81;;;22.23;73.08
71716;BME280;59568;52.128;5.434;2023-07-24T10:03:15;100363.91;;;22.48;72.95
71716;BME280;59568;52.128;5.434;2023-07-24T10:05:44;100357.50;;;22.64;70.93
71716;BME280;59568;52.128;5.434;2023-07-24T10:08:11;100351.38;;;22.63;70.76
71716;BME280;59568;52.128;5.434;2023-07-24T10:10:38;100355.97;;;22.81;71.23
71716;BME280;59568;52.128;5.434;2023-07-24T10:13:06;100365.09;;;22.87;71.53
71716;BME280;59568;52.128;5.434;2023-07-24T10:15:41;100368.13;;;22.85;70.07
71716;BME280;59568;52.128;5.434;2023-07-24T10:18:08;100365.47;;;22.85;70.28
71716;BME280;59568;52.128;5.434;2023-07-24T10:20:37;100361.31;;;22.84;69.03
71716;BME280;59568;52.128;5.434;2023-07-24T10:23:08;100363.22;;;22.98;69.97
71716;BME280;59568;52.128;5.434;2023-07-24T10:25:39;100349.03;;;23.55;70.27
71716;BME280;59568;52.128;5.434;2023-07-24T10:28:11;100342.13;;;23.83;68.51
71716;BME280;59568;52.128;5.434;2023-07-24T10:30:39;100337.25;;;23.52;68.43
71716;BME280;59568;52.128;5.434;2023-07-24T10:33:11;100321.38;;;23.02;69.22
71716;BME280;59568;52.128;5.434;2023-07-24T10:38:06;100339.19;;;22.51;70.28
71716;BME280;59568;52.128;5.434;2023-07-24T10:40:33;100332.72;;;22.49;70.32
71716;BME280;59568;52.128;5.434;2023-07-24T10:43:04;100334.25;;;22.71;70.22
71716;BME280;59568;52.128;5.434;2023-07-24T10:45:50;100336.56;;;23.02;69.61
71716;BME280;59568;52.128;5.434;2023-07-24T10:48:19;100330.41;;;23.44;68.68
71716;BME280;59568;52.128;5.434;2023-07-24T10:50:49;100333.03;;;23.59;67.12
71716;BME280;59568;52.128;5.434;2023-07-24T10:53:21;100323.91;;;23.52;68.45
71716;BME280;59568;52.128;5.434;2023-07-24T10:55:52;100323.00;;;23.95;68.22
71716;BME280;59568;52.128;5.434;2023-07-24T10:58:20;100331.19;;;24.29;67.70
71716;BME280;59568;52.128;5.434;2023-07-24T11:00:47;100325.22;;;24.07;66.52
71716;BME280;59568;52.128;5.434;2023-07-24T11:03:15;100322.28;;;23.84;65.88
71716;BME280;59568;52.128;5.434;2023-07-24T11:05:46;100331.44;;;23.72;66.86
71716;BME280;59568;52.128;5.434;2023-07-24T11:08:17;100331.50;;;23.65;67.92
71716;BME280;59568;52.128;5.434;2023-07-24T11:10:55;100325.78;;;23.59;67.77
71716;BME280;59568;52.128;5.434;2023-07-24T11:13:28;100319.28;;;23.60;68.14
71716;BME280;59568;52.128;5.434;2023-07-24T11:15:55;100329.91;;;23.89;68.23
71716;BME280;59568;52.128;5.434;2023-07-24T11:18:22;100322.66;;;23.89;67.20
71716;BME280;59568;52.128;5.434;2023-07-24T11:20:57;100329.53;;;23.80;66.80
71716;BME280;59568;52.128;5.434;2023-07-24T11:23:24;100324.63;;;23.67;68.50
71716;BME280;59568;52.128;5.434;2023-07-24T11:25:52;100337.22;;;23.60;69.08
71716;BME280;59568;52.128;5.434;2023-07-24T11:28:20;100335.66;;;23.73;67.63
71716;BME280;59568;52.128;5.434;2023-07-24T11:30:47;100337.31;;;24.26;68.32
71716;BME280;59568;52.128;5.434;2023-07-24T11:33:15;100337.59;;;24.43;66.89
71716;BME280;59568;52.128;5.434;2023-07-24T11:35:45;100335.38;;;24.86;64.93
71716;BME280;59568;52.128;5.434;2023-07-24T11:38:13;100343.00;;;24.88;66.10
71716;BME280;59568;52.128;5.434;2023-07-24T11:40:43;100349.06;;;24.92;64.77
71716;BME280;59568;52.128;5.434;2023-07-24T11:43:22;100354.75;;;24.98;63.86
71716;BME280;59568;52.128;5.434;2023-07-24T11:45:53;100355.88;;;25.00;65.39
71716;BME280;59568;52.128;5.434;2023-07-24T11:48:25;100348.25;;;24.46;65.11
71716;BME280;59568;52.128;5.434;2023-07-24T11:50:54;100341.31;;;23.97;65.83
71716;BME280;59568;52.128;5.434;2023-07-24T11:53:27;100353.94;;;23.78;69.21
71716;BME280;59568;52.128;5.434;2023-07-24T11:55:55;100354.75;;;23.61;68.79
71716;BME280;59568;52.128;5.434;2023-07-24T11:58:26;100360.13;;;23.39;69.67
71716;BME280;59568;52.128;5.434;2023-07-24T12:00:54;100357.50;;;23.18;70.56
71716;BME280;59568;52.128;5.434;2023-07-24T12:03:26;100359.00;;;22.79;69.54
71716;BME280;59568;52.128;5.434;2023-07-24T12:05:55;100349.47;;;22.46;71.46
71716;BME280;59568;52.128;5.434;2023-07-24T12:08:33;100344.13;;;22.39;72.20
71716;BME280;59568;52.128;5.434;2023-07-24T12:11:27;100339.94;;;22.41;72.41
71716;BME280;59568;52.128;5.434;2023-07-24T12:14:10;100347.56;;;22.46;72.86
71716;BME280;59568;52.128;5.434;2023-07-24T12:17:04;100336.91;;;22.46;72.90
71716;BME280;59568;52.128;5.434;2023-07-24T12:19:40;100333.47;;;22.49;72.78
71716;BME280;59568;52.128;5.434;2023-07-24T12:22:43;100339.59;;;22.64;71.46
71716;BME280;59568;52.128;5.434;2023-07-24T12:25:12;100327.41;;;22.81;71.94
71716;BME280;59568;52.128;5.434;2023-07-24T12:27:41;100326.66;;;23.17;69.17
71716;BME280;59568;52.128;5.434;2023-07-24T12:30:09;100324.75;;;23.13;69.08
71716;BME280;59568;52.128;5.434;2023-07-24T12:32:52;100322.50;;;23.12;67.88
71716;BME280;59568;52.128;5.434;2023-07-24T12:35:23;100329.31;;;23.06;68.96
71716;BME280;59568;52.128;5.434;2023-07-24T12:37:53;100323.97;;;23.24;69.75
71716;BME280;59568;52.128;5.434;2023-07-24T12:40:30;100331.91;;;23.52;70.13
71716;BME280;59568;52.128;5.434;2023-07-24T12:43:18;100322.38;;;23.51;68.78
71716;BME280;59568;52.128;5.434;2023-07-24T12:46:02;100328.47;;;23.56;69.37
71716;BME280;59568;52.128;5.434;2023-07-24T12:48:38;100338.03;;;23.42;69.15
71716;BME280;59568;52.128;5.434;2023-07-24T12:51:15;100332.75;;;23.21;68.78
71716;BME280;59568;52.128;5.434;2023-07-24T12:53:47;100335.81;;;22.94;69.53
71716;BME280;59568;52.128;5.434;2023-07-24T12:56:34;100325.53;;;22.74;70.65
71716;BME280;59568;52.128;5.434;2023-07-24T12:59:02;100342.63;;;22.48;70.70
71716;BME280;59568;52.128;5.434;2023-07-24T13:01:30;100339.88;;;22.23;73.07
71716;BME280;59568;52.128;5.434;2023-07-24T13:04:07;100340.25;;;22.18;73.52
71716;BME280;59568;52.128;5.434;2023-07-24T13:07:15;100358.06;;;22.03;74.99
71716;BME280;59568;52.128;5.434;2023-07-24T13:09:57;100343.59;;;21.90;75.72
71716;BME280;59568;52.128;5.434;2023-07-24T13:12:54;100344.31;;;21.83;79.10
71716;BME280;59568;52.128;5.434;2023-07-24T13:15:55;100338.97;;;21.76;98.82
71716;BME280;59568;52.128;5.434;2023-07-24T13:19:14;100350.25;;;21.59;100.00
71716;BME280;59568;52.128;5.434;2023-07-24T13:22:37;100349.34;;;21.33;100.00
71716;BME280;59568;52.128;5.434;2023-07-24T13:25:51;100353.34;;;21.09;100.00
71716;BME280;59568;52.128;5.434;2023-07-24T13:29:13;100342.44;;;20.73;100.00